Time;durP1;ratioP1;P1;durP2;ratioP2;P2;SDS_P1;SDS_P2;PMS_P1;PMS_P2;Temp;Humidity;BMP_temperature;BMP_pressure;BME280_temperature;BME280_humidity;BME280_pressure;Samples;Min_cycle;Max_cycle;Signal;HPM_P1;HPM_P2
2021/07/21 00:00:09;;;;;;;;;4.00;4.00;;;;;22.98;56.02;98663.38;4927174;28;102617;-82
2021/07/21 00:02:36;;;;;;;;;4.00;4.00;;;;;23.01;55.84;98659.25;4906516;28;102513;-83
2021/07/21 00:05:06;;;;;;;;;6.00;5.00;;;;;23.01;55.87;98660.03;4913948;28;104031;-82
2021/07/21 00:07:33;;;;;;;;;4.67;4.67;;;;;23.03;56.06;98671.63;4896729;28;103164;-82
2021/07/21 00:10:01;;;;;;;;;4.33;4.00;;;;;23.02;55.78;98658.09;4926515;28;102240;-82
2021/07/21 00:15:15;;;;;;;;;5.00;4.67;;;;;22.97;55.48;98672.75;4928679;28;107871;-82
2021/07/21 00:17:44;;;;;;;;;3.33;3.33;;;;;22.98;55.69;98668.88;4922898;28;102740;-83
2021/07/21 00:20:12;;;;;;;;;5.33;5.00;;;;;22.93;55.72;98657.84;4932202;28;102469;-82
2021/07/21 00:22:42;;;;;;;;;1.00;1.00;;;;;22.93;55.60;98659.78;4928237;28;104884;-83
2021/07/21 00:25:14;;;;;;;;;6.00;5.00;;;;;22.93;55.65;98666.13;4917454;28;104854;-80
2021/07/21 00:27:42;;;;;;;;;4.67;4.67;;;;;22.92;55.92;98664.47;4922828;28;104421;-80
2021/07/21 00:30:11;;;;;;;;;4.00;4.00;;;;;22.94;55.64;98667.78;4929396;28;102533;-79
2021/07/21 00:32:38;;;;;;;;;4.33;4.33;;;;;22.93;55.47;98666.13;4922057;28;102678;-80
2021/07/21 00:35:07;;;;;;;;;5.00;5.00;;;;;22.88;55.42;98668.06;4923340;28;104451;-80
2021/07/21 00:37:35;;;;;;;;;3.67;3.00;;;;;22.92;55.49;98667.22;4917561;28;102583;-79
2021/07/21 00:40:06;;;;;;;;;4.00;4.00;;;;;22.86;55.59;98671.13;4920154;28;104275;-80
2021/07/21 00:42:33;;;;;;;;;4.33;3.67;;;;;22.87;55.45;98672.78;4922721;28;102415;-80
2021/07/21 00:45:00;;;;;;;;;4.67;4.67;;;;;22.88;55.41;98668.91;4925419;28;105335;-80
2021/07/21 00:47:27;;;;;;;;;3.67;3.00;;;;;22.89;55.30;98667.78;4918342;28;103332;-80
2021/07/21 00:49:54;;;;;;;;;5.00;5.00;;;;;22.92;55.42;98674.69;4930610;28;103530;-80
2021/07/21 00:52:21;;;;;;;;;4.00;3.67;;;;;22.90;55.12;98674.16;4926643;28;104174;-80
2021/07/21 00:54:48;;;;;;;;;5.00;5.00;;;;;22.89;55.22;98681.59;4920995;28;104459;-80
2021/07/21 00:57:16;;;;;;;;;5.00;4.67;;;;;22.85;55.18;98686.00;4935363;28;103103;-80
2021/07/21 00:59:43;;;;;;;;;4.67;4.67;;;;;22.82;55.54;98678.31;4931609;28;102559;-80
2021/07/21 01:02:10;;;;;;;;;4.00;4.00;;;;;22.83;55.54;98685.44;4903373;28;104834;-80
2021/07/21 01:04:38;;;;;;;;;6.33;5.67;;;;;22.83;55.37;98676.38;4913973;28;104406;-80
2021/07/21 01:07:06;;;;;;;;;5.00;4.33;;;;;22.80;55.14;98676.91;4917956;28;103267;-80
2021/07/21 01:09:37;;;;;;;;;5.00;5.00;;;;;22.80;55.39;98683.25;4912872;28;104016;-80
2021/07/21 01:12:20;;;;;;;;;4.33;4.33;;;;;22.81;55.12;98679.41;4905863;28;103037;-80
2021/07/21 01:15:00;;;;;;;;;4.00;4.00;;;;;22.80;54.90;98674.16;4922020;28;104465;-79
2021/07/21 01:17:32;;;;;;;;;5.33;5.33;;;;;22.81;55.20;98673.06;4922297;28;102418;-80
2021/07/21 01:20:12;;;;;;;;;5.00;4.67;;;;;22.78;55.13;98668.94;4922601;28;102357;-79
2021/07/21 01:22:39;;;;;;;;;5.67;5.00;;;;;22.77;54.92;98672.78;4932906;28;102663;-79
2021/07/21 01:25:17;;;;;;;;;4.67;4.67;;;;;22.76;55.19;98673.91;4912671;28;104244;-79
2021/07/21 01:27:51;;;;;;;;;4.67;4.67;;;;;22.79;55.05;98678.00;4925111;28;102387;-80
2021/07/21 01:30:21;;;;;;;;;4.67;4.00;;;;;22.77;54.70;98678.31;4926104;28;105681;-79
2021/07/21 01:32:51;;;;;;;;;4.00;4.00;;;;;22.77;54.95;98677.47;4923889;28;102809;-80
2021/07/21 01:35:30;;;;;;;;;6.67;5.00;;;;;22.77;54.92;98683.81;4924100;28;110519;-80
2021/07/21 01:38:00;;;;;;;;;4.67;4.33;;;;;22.72;54.69;98675.56;4903828;28;103095;-80
2021/07/21 01:40:29;;;;;;;;;4.00;4.00;;;;;22.74;54.84;98678.03;4935922;28;102122;-80
2021/07/21 01:42:57;;;;;;;;;4.33;4.00;;;;;22.74;55.20;98678.84;4909282;28;102808;-80
2021/07/21 01:45:27;;;;;;;;;5.00;4.00;;;;;22.76;55.09;98687.69;4922875;28;104189;-80
2021/07/21 01:47:54;;;;;;;;;3.33;3.00;;;;;22.73;54.55;98682.72;4932641;28;104019;-79
2021/07/21 01:50:21;;;;;;;;;4.00;4.00;;;;;22.70;55.04;98688.78;4925319;28;102567;-80
2021/07/21 01:52:48;;;;;;;;;4.67;3.67;;;;;22.69;55.04;98684.34;4932082;28;102556;-79
2021/07/21 01:55:17;;;;;;;;;4.67;4.67;;;;;22.69;54.78;98681.59;4932284;28;104057;-80
2021/07/21 01:57:44;;;;;;;;;6.67;4.00;;;;;22.67;54.92;98681.03;4929330;28;102349;-80
2021/07/21 02:00:12;;;;;;;;;3.67;3.67;;;;;22.63;54.88;98680.78;4929079;28;102228;-79
2021/07/21 02:02:43;;;;;;;;;4.00;4.00;;;;;22.63;54.83;98691.78;4932942;28;104940;-80
2021/07/21 02:05:10;;;;;;;;;4.67;4.00;;;;;22.67;54.27;98690.13;4910407;28;104397;-80
2021/07/21 02:07:37;;;;;;;;;5.67;4.33;;;;;22.66;54.69;98690.41;4927797;28;102538;-80
2021/07/21 02:10:06;;;;;;;;;4.67;4.00;;;;;22.64;54.62;98687.13;4914551;28;102707;-80
2021/07/21 02:12:34;;;;;;;;;4.00;4.00;;;;;22.59;54.54;98687.94;4930308;28;102527;-80
2021/07/21 02:15:02;;;;;;;;;4.00;3.67;;;;;22.59;55.07;98689.88;4930558;28;104075;-80
2021/07/21 02:17:29;;;;;;;;;3.00;3.00;;;;;22.60;54.35;98688.78;4932746;28;102790;-80
2021/07/21 02:19:56;;;;;;;;;4.67;3.67;;;;;22.57;54.25;98690.13;4930161;28;103581;-80
2021/07/21 02:22:23;;;;;;;;;3.67;3.67;;;;;22.60;54.01;98688.78;4936222;28;103103;-80
2021/07/21 02:24:50;;;;;;;;;5.33;4.33;;;;;22.59;54.31;98695.38;4937825;28;112509;-80
2021/07/21 02:27:17;;;;;;;;;3.67;3.67;;;;;22.57;54.41;98689.31;4927405;28;102722;-80
2021/07/21 02:29:44;;;;;;;;;6.33;5.33;;;;;22.52;54.80;98692.91;4930634;28;102986;-79
2021/07/21 02:32:22;;;;;;;;;3.67;3.67;;;;;22.54;54.10;98698.97;4925853;28;104877;-80
2021/07/21 02:34:49;;;;;;;;;5.67;4.33;;;;;22.50;54.23;98702.56;4921558;28;104122;-82
2021/07/21 02:37:17;;;;;;;;;6.33;5.00;;;;;22.47;54.49;98694.84;4932323;28;102338;-82
2021/07/21 02:39:45;;;;;;;;;5.67;3.67;;;;;22.50;53.96;98688.78;4926076;28;102392;-82
2021/07/21 02:42:13;;;;;;;;;4.00;3.67;;;;;22.49;54.14;98692.63;4924501;28;103774;-82
2021/07/21 02:44:42;;;;;;;;;4.67;3.67;;;;;22.49;54.17;98690.69;4929007;28;104138;-82
2021/07/21 02:47:09;;;;;;;;;4.33;3.67;;;;;22.47;53.94;98686.59;4927691;28;102276;-82
2021/07/21 02:49:37;;;;;;;;;4.67;4.00;;;;;22.48;54.01;98691.78;4930800;28;104439;-82
2021/07/21 02:52:08;;;;;;;;;4.00;4.00;;;;;22.45;54.19;98702.56;4938198;28;102727;-82
2021/07/21 02:54:40;;;;;;;;;3.00;2.67;;;;;22.47;54.10;98700.34;4939838;28;104111;-82
2021/07/21 02:57:16;;;;;;;;;3.67;3.00;;;;;22.46;54.01;98701.44;4913327;28;102741;-83
2021/07/21 02:59:46;;;;;;;;;4.00;4.00;;;;;22.41;53.96;98702.28;4934290;28;102250;-82
2021/07/21 03:02:14;;;;;;;;;5.00;3.67;;;;;22.42;53.86;98711.38;4921261;28;103222;-82
2021/07/21 03:04:42;;;;;;;;;4.67;4.67;;;;;22.43;53.73;98704.75;4926808;28;104046;-82
2021/07/21 03:07:10;;;;;;;;;4.00;4.00;;;;;22.44;53.60;98714.66;4909311;28;103483;-83
2021/07/21 03:09:37;;;;;;;;;4.00;3.00;;;;;22.46;53.80;98715.22;4929965;28;104525;-83
2021/07/21 03:12:06;;;;;;;;;2.33;2.33;;;;;22.47;53.71;98717.69;4932363;28;102565;-82
2021/07/21 03:14:37;;;;;;;;;3.67;3.67;;;;;22.48;53.42;98718.53;4913906;28;104888;-82
2021/07/21 03:17:05;;;;;;;;;3.33;3.00;;;;;22.43;53.13;98715.75;4939976;28;102288;-82
2021/07/21 03:19:32;;;;;;;;;3.00;3.00;;;;;22.42;53.74;98714.97;4915616;28;102752;-82
2021/07/21 03:22:00;;;;;;;;;4.00;4.00;;;;;22.39;53.39;98714.66;4929025;28;103003;-82
2021/07/21 03:24:27;;;;;;;;;3.33;3.33;;;;;22.38;53.46;98724.06;4928427;28;104576;-81
2021/07/21 03:26:54;;;;;;;;;4.33;3.67;;;;;22.33;53.36;98718.53;4912908;28;102680;-82
2021/07/21 03:29:22;;;;;;;;;4.33;3.67;;;;;22.33;53.40;98726.81;4915736;28;109839;-83
2021/07/21 03:31:49;;;;;;;;;3.33;3.33;;;;;22.37;53.31;98730.66;4912808;28;104574;-83
2021/07/21 03:34:17;;;;;;;;;3.33;3.00;;;;;22.33;53.73;98727.63;4921636;28;104069;-79
2021/07/21 03:36:47;;;;;;;;;2.67;2.67;;;;;22.33;53.13;98732.31;4920977;28;103020;-80
2021/07/21 03:39:14;;;;;;;;;3.67;3.67;;;;;22.35;53.37;98741.13;4926075;28;103172;-80
2021/07/21 03:41:41;;;;;;;;;3.67;3.67;;;;;22.31;53.14;98734.50;4927713;28;104367;-80
2021/07/21 03:44:10;;;;;;;;;2.33;2.33;;;;;22.31;53.20;98738.09;4924164;28;106274;-80
2021/07/21 03:46:38;;;;;;;;;4.33;4.33;;;;;22.28;52.97;98741.41;4912583;28;104768;-79
2021/07/21 03:49:06;;;;;;;;;7.00;5.67;;;;;22.32;53.17;98752.69;4920934;28;104666;-80
2021/07/21 03:51:37;;;;;;;;;5.00;4.00;;;;;22.24;52.96;98738.34;4927435;28;106415;-80
2021/07/21 03:54:08;;;;;;;;;4.00;4.00;;;;;22.30;53.24;98749.38;4931603;28;104162;-80
2021/07/21 03:56:37;;;;;;;;;4.00;3.67;;;;;22.29;53.06;98747.75;4928174;28;104030;-80
2021/07/21 03:59:05;;;;;;;;;3.67;3.00;;;;;22.26;52.77;98749.09;4933296;28;102671;-80
2021/07/21 04:01:33;;;;;;;;;3.00;3.00;;;;;22.25;52.71;98752.94;4938846;28;102522;-80
2021/07/21 04:04:01;;;;;;;;;2.67;2.67;;;;;22.20;52.74;98745.50;4931612;28;104278;-80
2021/07/21 04:06:31;;;;;;;;;2.67;2.67;;;;;22.22;52.80;98754.31;4941968;28;104245;-81
2021/07/21 04:09:03;;;;;;;;;1.67;1.67;;;;;22.24;52.82;98754.88;4930987;28;102929;-81
2021/07/21 04:11:31;;;;;;;;;4.67;3.67;;;;;22.24;52.37;98746.59;4927621;28;104078;-82
2021/07/21 04:13:58;;;;;;;;;3.67;3.67;;;;;22.25;52.68;98753.78;4932385;28;104072;-81
2021/07/21 04:16:26;;;;;;;;;5.00;4.33;;;;;22.26;52.52;98754.59;4930047;28;102155;-83
2021/07/21 04:18:53;;;;;;;;;3.33;3.33;;;;;22.22;52.76;98754.31;4928871;28;110838;-82
2021/07/21 04:21:20;;;;;;;;;5.33;4.00;;;;;22.20;52.52;98753.75;4929102;28;102442;-82
2021/07/21 04:23:47;;;;;;;;;5.33;3.67;;;;;22.20;52.67;98762.03;4939187;28;105198;-82
2021/07/21 04:26:14;;;;;;;;;3.33;3.33;;;;;22.21;52.69;98760.94;4908554;28;102919;-82
2021/07/21 04:28:41;;;;;;;;;3.00;3.00;;;;;22.20;52.23;98764.78;4940292;28;102468;-82
2021/07/21 04:31:09;;;;;;;;;4.00;3.67;;;;;22.25;52.21;98764.78;4947204;28;105703;-82
2021/07/21 04:33:36;;;;;;;;;4.00;4.00;;;;;22.25;52.40;98774.97;4936286;28;104266;-82
2021/07/21 04:36:03;;;;;;;;;4.33;3.67;;;;;22.20;52.63;98762.03;4937229;28;102402;-82
2021/07/21 04:38:30;;;;;;;;;4.00;4.00;;;;;22.23;52.21;98771.69;4939517;28;103364;-81
2021/07/21 04:40:57;;;;;;;;;2.67;2.67;;;;;22.21;52.43;98771.13;4920685;28;103677;-82
2021/07/21 04:43:24;;;;;;;;;5.00;3.33;;;;;22.21;52.42;98777.47;4904904;28;108761;-83
2021/07/21 04:45:51;;;;;;;;;5.67;5.67;;;;;22.18;52.17;98780.75;4935509;28;104854;-83
2021/07/21 04:48:19;;;;;;;;;3.00;3.00;;;;;22.16;51.96;98782.94;4907624;28;104444;-83
2021/07/21 04:50:46;;;;;;;;;4.67;4.00;;;;;22.15;52.17;98777.72;4940249;28;103151;-82
2021/07/21 04:53:15;;;;;;;;;4.33;4.33;;;;;22.18;51.66;98788.19;4924071;28;110551;-82
2021/07/21 04:55:43;;;;;;;;;4.33;4.33;;;;;22.15;51.93;98788.75;4924123;28;102596;-83
2021/07/21 04:58:10;;;;;;;;;3.33;3.33;;;;;22.09;51.35;98790.66;4929359;28;103473;-82
2021/07/21 05:00:37;;;;;;;;;3.33;3.00;;;;;22.09;51.89;98790.66;4927644;28;102738;-82
2021/07/21 05:03:06;;;;;;;;;3.67;3.67;;;;;22.11;51.90;98788.44;4929990;28;104050;-82
2021/07/21 05:05:33;;;;;;;;;4.00;3.00;;;;;22.08;51.82;98794.50;4913565;28;103769;-80
2021/07/21 05:08:00;;;;;;;;;5.00;5.00;;;;;22.07;52.09;98789.25;4943523;28;102450;-80
2021/07/21 05:10:28;;;;;;;;;4.00;3.00;;;;;22.08;51.77;98797.25;4937689;28;103289;-80
2021/07/21 05:12:55;;;;;;;;;3.33;3.00;;;;;22.08;52.00;98807.44;4937845;28;104144;-80
2021/07/21 05:15:22;;;;;;;;;4.00;4.00;;;;;22.05;51.58;98803.31;4944383;28;103074;-79
2021/07/21 05:17:49;;;;;;;;;3.33;3.33;;;;;22.06;51.49;98801.38;4936946;28;102301;-80
2021/07/21 05:20:16;;;;;;;;;4.67;3.67;;;;;22.02;51.59;98803.03;4934209;28;102624;-80
2021/07/21 05:22:47;;;;;;;;;2.67;2.67;;;;;22.00;51.65;98803.28;4932236;28;104058;-80
2021/07/21 05:25:15;;;;;;;;;3.67;3.67;;;;;22.03;51.77;98802.75;4937574;28;103704;-80
2021/07/21 05:27:42;;;;;;;;;5.00;5.00;;;;;22.07;51.39;98814.88;4935730;28;102616;-80
2021/07/21 05:30:10;;;;;;;;;3.00;3.00;;;;;22.05;51.47;98805.22;4932369;28;102719;-80
2021/07/21 05:32:37;;;;;;;;;2.67;2.67;;;;;22.03;51.49;98805.50;4941485;28;104085;-80
2021/07/21 05:35:05;;;;;;;;;2.67;2.67;;;;;22.05;51.23;98802.47;4939740;28;102276;-82
2021/07/21 05:37:32;;;;;;;;;3.67;2.33;;;;;22.05;51.33;98811.56;4943926;28;102488;-81
2021/07/21 05:39:59;;;;;;;;;3.67;3.33;;;;;22.02;51.03;98808.53;4943411;28;103194;-83
2021/07/21 05:42:27;;;;;;;;;2.67;2.67;;;;;22.03;51.53;98807.41;4939886;28;108981;-82
2021/07/21 05:44:54;;;;;;;;;4.33;4.00;;;;;22.02;51.55;98814.03;4944490;28;102267;-82
2021/07/21 05:47:21;;;;;;;;;5.00;3.67;;;;;22.03;51.37;98822.03;4942518;28;102663;-82
2021/07/21 05:49:48;;;;;;;;;3.67;3.67;;;;;22.05;51.24;98814.34;4942151;28;102933;-82
2021/07/21 05:52:16;;;;;;;;;2.67;2.00;;;;;22.05;51.07;98819.84;4940111;28;104062;-82
2021/07/21 05:54:44;;;;;;;;;4.33;3.67;;;;;22.03;51.11;98816.50;4940824;28;103855;-83
2021/07/21 05:57:11;;;;;;;;;5.00;5.00;;;;;22.02;51.44;98834.13;4931328;28;102249;-82
2021/07/21 05:59:38;;;;;;;;;4.33;3.67;;;;;22.04;51.08;98823.69;4934729;28;102490;-82
2021/07/21 06:02:06;;;;;;;;;3.00;3.00;;;;;22.05;51.66;98814.34;4940596;28;104049;-83
2021/07/21 06:04:33;;;;;;;;;3.00;3.00;;;;;22.05;51.14;98828.09;4937867;28;102168;-80
2021/07/21 06:07:00;;;;;;;;;4.33;3.67;;;;;22.06;51.54;98813.25;4949439;28;102975;-80
2021/07/21 06:09:28;;;;;;;;;3.67;3.67;;;;;22.04;51.07;98822.84;4947972;28;102694;-80
2021/07/21 06:11:55;;;;;;;;;4.00;4.00;;;;;22.02;51.17;98819.56;4937568;28;104077;-80
2021/07/21 06:14:22;;;;;;;;;3.67;2.67;;;;;22.03;51.33;98832.19;4946575;28;102143;-80
2021/07/21 06:16:49;;;;;;;;;1.33;1.33;;;;;22.00;51.03;98825.31;4944182;28;103711;-80
2021/07/21 06:19:17;;;;;;;;;4.33;3.67;;;;;22.01;51.79;98828.91;4931097;28;102633;-80
2021/07/21 06:21:44;;;;;;;;;3.67;3.67;;;;;22.00;51.25;98839.09;4945284;28;104054;-80
2021/07/21 06:24:11;;;;;;;;;3.00;3.00;;;;;22.01;51.34;98835.25;4947062;28;102213;-80
2021/07/21 06:26:38;;;;;;;;;2.00;2.00;;;;;22.03;51.36;98849.56;4941422;28;102530;-80
2021/07/21 06:29:06;;;;;;;;;4.00;3.67;;;;;22.04;51.51;98847.63;4957189;28;102285;-80
2021/07/21 06:31:36;;;;;;;;;4.00;2.67;;;;;22.07;51.23;98844.34;4931928;28;108693;-80
2021/07/21 06:34:04;;;;;;;;;3.00;3.00;;;;;22.07;51.24;98847.91;4941869;28;102387;-80
2021/07/21 06:36:31;;;;;;;;;4.00;2.67;;;;;22.07;51.12;98847.09;4948077;28;102861;-83
2021/07/21 06:38:58;;;;;;;;;4.00;3.67;;;;;22.09;51.31;98848.50;4953733;28;103179;-83
2021/07/21 06:41:25;;;;;;;;;3.33;3.33;;;;;22.09;51.44;98853.16;4937427;28;104457;-82
2021/07/21 06:43:54;;;;;;;;;4.00;4.00;;;;;22.06;51.42;98860.06;4935920;28;102440;-83
2021/07/21 06:46:21;;;;;;;;;4.67;3.33;;;;;22.06;51.46;98857.31;4930947;28;106074;-82
2021/07/21 06:48:48;;;;;;;;;3.33;3.33;;;;;22.08;51.49;98857.84;4942437;28;102673;-82
2021/07/21 06:51:15;;;;;;;;;4.33;2.33;;;;;22.10;51.32;98860.34;4947034;28;104240;-82
2021/07/21 06:53:43;;;;;;;;;3.00;3.00;;;;;22.13;51.45;98866.13;4949181;28;103001;-82
2021/07/21 06:56:11;;;;;;;;;5.33;3.67;;;;;22.11;51.55;98865.56;4942791;28;102686;-83
2021/07/21 06:58:38;;;;;;;;;2.67;2.67;;;;;22.12;51.62;98860.88;4937113;28;102456;-82
2021/07/21 07:01:05;;;;;;;;;5.33;4.67;;;;;22.16;51.51;98854.56;4952485;28;104144;-82
2021/07/21 07:03:33;;;;;;;;;4.00;4.00;;;;;22.16;51.51;98862.00;4929393;28;102468;-82
2021/07/21 07:06:01;;;;;;;;;5.00;4.00;;;;;22.18;51.73;98857.88;4938584;28;102857;-82
2021/07/21 07:08:28;;;;;;;;;4.33;3.33;;;;;22.21;51.77;98854.59;4938464;28;102803;-82
2021/07/21 07:11:00;;;;;;;;;2.67;2.67;;;;;22.21;51.37;98857.34;4941114;28;109205;-82
2021/07/21 07:13:27;;;;;;;;;3.00;3.00;;;;;22.22;51.62;98870.03;4931522;28;102416;-82
2021/07/21 07:15:55;;;;;;;;;3.33;2.67;;;;;22.29;51.35;98863.44;4930128;28;102588;-82
2021/07/21 07:18:22;;;;;;;;;3.67;3.33;;;;;22.32;51.28;98868.41;4946419;28;102329;-82
2021/07/21 07:20:50;;;;;;;;;2.33;2.33;;;;;22.33;51.32;98868.16;4936242;28;105363;-82
2021/07/21 07:23:17;;;;;;;;;4.00;3.33;;;;;22.37;51.22;98866.50;4948528;28;102645;-83
2021/07/21 07:25:44;;;;;;;;;4.00;3.00;;;;;22.40;50.93;98865.13;4932653;28;102654;-83
2021/07/21 07:28:12;;;;;;;;;3.33;3.00;;;;;22.42;50.94;98865.69;4933387;28;102234;-83
2021/07/21 07:30:39;;;;;;;;;2.67;2.67;;;;;22.42;51.04;98865.69;4932417;28;106223;-82
2021/07/21 07:33:06;;;;;;;;;2.67;2.67;;;;;22.43;51.07;98875.59;4942300;28;102850;-82
2021/07/21 07:35:36;;;;;;;;;3.67;3.67;;;;;22.44;50.92;98869.81;4934994;28;103587;-82
2021/07/21 07:38:03;;;;;;;;;2.00;2.00;;;;;22.46;51.25;98872.31;4939821;28;102499;-82
2021/07/21 07:40:31;;;;;;;;;4.00;3.00;;;;;22.46;51.16;98870.38;4942987;28;109178;-82
2021/07/21 07:42:58;;;;;;;;;3.00;3.00;;;;;22.47;50.94;98871.22;4930393;28;102187;-82
2021/07/21 07:45:25;;;;;;;;;2.67;2.67;;;;;22.49;51.26;98877.25;4935779;28;102542;-83
2021/07/21 07:47:52;;;;;;;;;2.00;2.00;;;;;22.50;51.05;98877.00;4944290;28;102228;-82
2021/07/21 07:50:19;;;;;;;;;3.00;3.00;;;;;22.51;50.93;98878.66;4931754;28;104136;-83
2021/07/21 07:52:46;;;;;;;;;3.00;3.00;;;;;22.52;51.24;98876.72;4940652;28;102795;-82
2021/07/21 07:55:13;;;;;;;;;3.67;3.00;;;;;22.53;51.01;98881.97;4948582;28;102397;-83
2021/07/21 07:57:41;;;;;;;;;2.67;2.67;;;;;22.55;51.19;98876.19;4942911;28;102783;-82
2021/07/21 08:00:09;;;;;;;;;1.00;1.00;;;;;22.56;51.17;98870.38;4940756;28;104184;-82
2021/07/21 08:02:36;;;;;;;;;2.00;2.00;;;;;22.59;51.35;98874.53;4938056;28;102225;-81
2021/07/21 08:05:05;;;;;;;;;1.67;1.67;;;;;22.60;51.36;98870.69;4946389;28;102490;-82
2021/07/21 08:07:32;;;;;;;;;2.67;2.33;;;;;22.61;51.30;98872.31;4941420;28;102152;-83
2021/07/21 08:10:00;;;;;;;;;3.00;3.00;;;;;22.62;51.38;98871.22;4945995;28;104350;-83
2021/07/21 08:12:27;;;;;;;;;2.67;2.33;;;;;22.62;51.51;98868.47;4929587;28;102624;-83
2021/07/21 08:14:54;;;;;;;;;3.33;2.33;;;;;22.64;51.46;98874.56;4937927;28;103441;-82
2021/07/21 08:17:22;;;;;;;;;3.00;3.00;;;;;22.65;51.24;98876.19;4948566;28;102689;-82
2021/07/21 08:19:50;;;;;;;;;2.67;2.67;;;;;22.66;51.31;98881.44;4936056;28;104160;-82
2021/07/21 08:22:17;;;;;;;;;3.00;2.00;;;;;22.66;51.36;98875.94;4940725;28;102683;-82
2021/07/21 08:24:45;;;;;;;;;3.67;2.67;;;;;22.67;51.58;98877.59;4941513;28;102732;-83
2021/07/21 08:27:12;;;;;;;;;3.00;3.00;;;;;22.69;51.42;98874.56;4947709;28;102369;-83
2021/07/21 08:29:39;;;;;;;;;2.00;2.00;;;;;22.69;51.45;98883.69;4942083;28;104758;-82
2021/07/21 08:32:06;;;;;;;;;3.33;3.00;;;;;22.72;51.43;98889.75;4948781;28;102610;-80
2021/07/21 08:34:34;;;;;;;;;3.00;2.67;;;;;22.71;51.57;98888.94;4933732;28;103682;-80
2021/07/21 08:37:01;;;;;;;;;3.00;2.67;;;;;22.73;51.44;98891.41;4935095;28;103766;-80
2021/07/21 08:39:28;;;;;;;;;2.67;2.67;;;;;22.74;51.51;98885.63;4940740;28;104455;-80
2021/07/21 08:41:55;;;;;;;;;5.00;3.33;;;;;22.74;51.60;98884.81;4949500;28;102658;-80
2021/07/21 08:44:22;;;;;;;;;2.67;2.67;;;;;22.76;51.38;98891.69;4936842;28;102564;-80
2021/07/21 08:46:50;;;;;;;;;4.00;3.00;;;;;22.77;51.49;98887.84;4941353;28;102641;-80
2021/07/21 08:49:17;;;;;;;;;2.33;2.33;;;;;22.78;51.58;98886.75;4937733;28;104255;-80
2021/07/21 08:51:44;;;;;;;;;4.00;3.67;;;;;22.79;51.22;98887.56;4929712;28;102348;-80
2021/07/21 08:54:11;;;;;;;;;3.33;2.67;;;;;22.80;51.43;98891.97;4941032;28;102468;-81
2021/07/21 08:56:38;;;;;;;;;3.33;3.33;;;;;22.80;51.51;98881.78;4933565;28;102811;-80
2021/07/21 08:59:06;;;;;;;;;3.00;2.67;;;;;22.82;51.43;98890.63;4921292;28;104214;-80
2021/07/21 09:01:33;;;;;;;;;3.00;2.00;;;;;22.84;51.27;98882.88;4942924;28;103407;-80
2021/07/21 09:04:01;;;;;;;;;2.67;2.67;;;;;22.85;51.29;98892.81;4946083;28;102334;-80
2021/07/21 09:06:29;;;;;;;;;1.67;1.67;;;;;22.88;51.67;98889.50;4931550;28;102589;-80
2021/07/21 09:08:56;;;;;;;;;2.67;1.67;;;;;22.88;51.47;98895.03;4933467;28;105345;-80
2021/07/21 09:11:23;;;;;;;;;4.00;3.33;;;;;22.89;51.51;98893.09;4946629;28;102306;-80
2021/07/21 09:13:50;;;;;;;;;2.33;1.67;;;;;22.89;51.37;98891.16;4936954;28;102576;-80
2021/07/21 09:16:18;;;;;;;;;2.00;2.00;;;;;22.89;51.56;98890.34;4945998;28;102255;-80
2021/07/21 09:18:52;;;;;;;;;3.00;3.00;;;;;22.90;51.64;98892.00;4941930;28;104163;-80
2021/07/21 09:21:21;;;;;;;;;1.67;1.67;;;;;22.91;51.36;98894.50;4935521;28;102492;-80
2021/07/21 09:23:53;;;;;;;;;1.67;1.67;;;;;22.93;51.43;98892.28;4940544;28;102266;-80
2021/07/21 09:26:32;;;;;;;;;3.00;3.00;;;;;22.94;51.35;98891.19;4937224;28;102986;-80
2021/07/21 09:29:02;;;;;;;;;2.00;2.00;;;;;22.97;51.61;98892.53;4946714;28;104537;-80
2021/07/21 09:31:32;;;;;;;;;2.33;2.33;;;;;22.96;51.41;98889.00;4941325;28;103383;-80
2021/07/21 09:34:09;;;;;;;;;2.00;2.00;;;;;22.97;51.42;98898.91;4941802;28;102058;-80
2021/07/21 09:36:36;;;;;;;;;2.00;2.00;;;;;22.98;51.52;98888.69;4936821;28;102666;-80
2021/07/21 09:39:03;;;;;;;;;3.00;3.00;;;;;22.98;51.45;98892.28;4942905;28;109021;-80
2021/07/21 09:41:30;;;;;;;;;1.67;1.67;;;;;23.00;51.39;98898.38;4947483;28;102622;-79
2021/07/21 09:44:02;;;;;;;;;2.67;2.00;;;;;22.99;51.61;98885.66;4948938;28;102379;-80
2021/07/21 09:46:32;;;;;;;;;2.00;2.00;;;;;23.01;51.57;98882.66;4928581;28;103286;-80
2021/07/21 09:49:00;;;;;;;;;2.00;2.00;;;;;23.02;51.68;98889.78;4947532;28;104170;-80
2021/07/21 09:51:34;;;;;;;;;1.33;1.33;;;;;23.04;51.66;98884.84;4944607;28;109814;-80
2021/07/21 09:54:18;;;;;;;;;2.67;2.67;;;;;23.05;51.50;98881.00;4943821;28;102198;-80
2021/07/21 09:56:48;;;;;;;;;3.33;3.00;;;;;23.06;51.57;98890.91;4869431;28;102812;-80
2021/07/21 09:59:26;;;;;;;;;1.00;1.00;;;;;23.06;51.23;98885.38;4943746;28;104186;-80
2021/07/21 10:01:53;;;;;;;;;2.00;2.00;;;;;23.07;51.60;98887.88;4941758;28;103375;-80
2021/07/21 10:04:38;;;;;;;;;4.00;3.00;;;;;23.08;51.78;98881.25;4933993;28;102436;-80
2021/07/21 10:10:17;;;;;;;;;2.67;2.33;;;;;23.11;51.53;98890.91;4858642;28;109855;-80
2021/07/21 10:12:44;;;;;;;;;3.33;3.00;;;;;23.12;51.59;98884.28;4945505;28;102056;-80
2021/07/21 10:15:19;;;;;;;;;3.00;2.00;;;;;23.12;51.44;98887.88;4938098;28;102315;-80
2021/07/21 10:18:04;;;;;;;;;2.67;2.00;;;;;23.11;51.59;98886.22;4948449;28;102172;-80
2021/07/21 10:20:31;;;;;;;;;2.00;1.67;;;;;23.13;51.55;98889.53;4952366;28;104086;-80
2021/07/21 10:22:59;;;;;;;;;1.00;1.00;;;;;23.15;51.60;98886.50;4937713;28;102529;-80
2021/07/21 10:25:26;;;;;;;;;3.00;3.00;;;;;23.16;51.54;98895.59;4937298;28;102796;-80
2021/07/21 10:27:54;;;;;;;;;3.00;2.67;;;;;23.17;51.61;98880.72;4941965;28;102341;-80
2021/07/21 10:30:21;;;;;;;;;2.00;2.00;;;;;23.17;51.47;98887.06;4933053;28;104184;-80
2021/07/21 10:32:49;;;;;;;;;2.00;2.00;;;;;23.18;51.52;98887.88;4935323;28;102831;-80
2021/07/21 10:35:16;;;;;;;;;3.00;1.67;;;;;23.17;51.65;98880.72;4942787;28;102310;-80
2021/07/21 10:37:43;;;;;;;;;2.00;2.00;;;;;23.18;51.58;98882.38;4930879;28;102439;-80
2021/07/21 10:40:11;;;;;;;;;2.00;2.00;;;;;23.19;51.44;98892.31;4940146;28;104072;-80
2021/07/21 10:42:38;;;;;;;;;3.00;2.00;;;;;23.20;51.58;98892.00;4920190;28;105004;-80
2021/07/21 10:45:19;;;;;;;;;1.67;1.67;;;;;23.22;51.61;98889.00;4933134;28;103417;-80
2021/07/21 10:47:51;;;;;;;;;2.67;2.67;;;;;23.23;51.51;98891.47;4877193;28;102700;-80
2021/07/21 10:50:47;;;;;;;;;2.00;2.00;;;;;23.22;51.36;98891.75;4932903;28;104325;-80
2021/07/21 10:53:36;;;;;;;;;3.00;2.67;;;;;23.25;51.54;98892.00;4898079;28;103675;-79
2021/07/21 10:59:11;;;;;;;;;2.00;2.00;;;;;23.25;51.56;98889.25;4881009;28;102986;-80
2021/07/21 11:01:44;;;;;;;;;3.00;3.00;;;;;23.25;51.55;98877.38;4947616;28;104087;-80
2021/07/21 11:04:14;;;;;;;;;2.67;2.67;;;;;23.25;51.76;98883.75;4949296;28;102154;-79
2021/07/21 11:06:43;;;;;;;;;1.33;1.33;;;;;23.26;51.62;98881.81;4936982;28;102414;-80
2021/07/21 11:09:17;;;;;;;;;1.67;1.67;;;;;23.25;51.70;98877.38;4946962;28;103554;-80
2021/07/21 11:11:45;;;;;;;;;3.00;3.00;;;;;23.27;51.73;98880.72;4936664;28;104077;-80
2021/07/21 11:14:17;;;;;;;;;1.33;1.33;;;;;23.31;51.58;98873.53;4944253;28;102579;-80
2021/07/21 11:16:54;;;;;;;;;3.00;3.00;;;;;23.32;51.58;98878.78;4940910;28;106176;-80
2021/07/21 11:19:50;;;;;;;;;1.67;1.67;;;;;23.35;51.43;98877.38;4949973;28;103384;-80
2021/07/21 11:22:29;;;;;;;;;2.00;1.67;;;;;23.35;51.56;98874.63;4896955;28;110288;-80
2021/07/21 11:25:15;;;;;;;;;2.00;2.00;;;;;23.37;51.48;98870.47;4935556;28;103123;-80
2021/07/21 11:27:51;;;;;;;;;1.67;1.67;;;;;23.34;51.64;98873.81;4929659;28;103248;-80
2021/07/21 11:30:45;;;;;;;;;2.33;2.33;;;;;23.40;51.50;98867.19;4951194;28;104674;-80
2021/07/21 11:33:47;;;;;;;;;1.33;1.33;;;;;23.43;51.27;98868.53;4940815;28;109140;-80
2021/07/21 11:36:39;;;;;;;;;2.33;2.33;;;;;23.40;51.29;98858.06;4882933;28;104019;-80
2021/07/21 11:39:07;;;;;;;;;3.00;3.00;;;;;23.40;51.51;98869.13;4932697;28;102640;-80
2021/07/21 11:41:55;;;;;;;;;2.00;2.00;;;;;23.40;51.62;98867.19;4948286;28;102867;-80